Time;durP1;ratioP1;P1;durP2;ratioP2;P2;SDS_P1;SDS_P2;PMS_P1;PMS_P2;Temp;Humidity;BMP_temperature;BMP_pressure;BME280_temperature;BME280_humidity;BME280_pressure;Samples;Min_cycle;Max_cycle;Signal;HPM_P1;HPM_P2
2022/09/23 00:02:16;;;;;;;;;26.50;23.50;;;;;;;;5043121;28;46580;-68
2022/09/23 00:04:42;;;;;;;;;28.00;24.50;;;;;;;;5042848;28;45422;-68
2022/09/23 00:07:07;;;;;;;;;30.25;24.75;;;;;;;;5043459;28;46469;-68
2022/09/23 00:09:33;;;;;;;;;24.25;23.00;;;;;;;;5043189;28;45593;-68
2022/09/23 00:11:58;;;;;;;;;24.50;21.25;;;;;;;;5043024;28;46499;-68
2022/09/23 00:14:24;;;;;;;;;26.25;22.00;;;;;;;;5042885;28;45387;-68
2022/09/23 00:16:49;;;;;;;;;28.75;23.50;;;;;;;;5024695;28;45581;-68
2022/09/23 00:19:14;;;;;;;;;24.00;22.50;;;;;;;;5020498;28;46084;-68
2022/09/23 00:21:39;;;;;;;;;24.25;21.00;;;;;;;;5042093;28;45478;-68
2022/09/23 00:24:06;;;;;;;;;25.75;24.25;;;;;;;;5043189;28;45325;-68
2022/09/23 00:26:32;;;;;;;;;25.75;24.00;;;;;;;;5042474;28;45851;-68
2022/09/23 00:28:57;;;;;;;;;27.00;24.25;;;;;;;;5043221;28;45823;-70
2022/09/23 00:31:24;;;;;;;;;30.00;27.00;;;;;;;;5041990;28;46390;-68
2022/09/23 00:33:53;;;;;;;;;26.50;26.00;;;;;;;;5042183;28;45460;-68
2022/09/23 00:36:18;;;;;;;;;28.75;26.00;;;;;;;;5041919;28;45403;-68
2022/09/23 00:38:44;;;;;;;;;30.25;26.25;;;;;;;;5043035;28;45533;-68
2022/09/23 00:41:10;;;;;;;;;28.00;23.50;;;;;;;;5042286;28;45638;-68
2022/09/23 00:43:36;;;;;;;;;21.25;21.25;;;;;;;;5041400;28;45458;-68
2022/09/23 00:46:02;;;;;;;;;26.50;25.75;;;;;;;;5041966;28;45418;-68
2022/09/23 00:48:27;;;;;;;;;24.25;23.50;;;;;;;;5042550;28;45414;-67
2022/09/23 00:50:53;;;;;;;;;25.50;23.00;;;;;;;;5042067;28;46465;-67
2022/09/23 00:53:21;;;;;;;;;22.25;21.00;;;;;;;;5042729;28;45181;-67
2022/09/23 00:55:48;;;;;;;;;20.25;18.00;;;;;;;;5042502;28;45889;-67
2022/09/23 00:58:16;;;;;;;;;23.75;22.00;;;;;;;;5042998;28;45434;-67
2022/09/23 01:00:41;;;;;;;;;24.75;21.25;;;;;;;;5021856;28;46464;-69
2022/09/23 01:03:08;;;;;;;;;28.25;20.75;;;;;;;;5041908;28;45334;-66
2022/09/23 01:05:33;;;;;;;;;24.50;20.50;;;;;;;;5042094;28;45414;-66
2022/09/23 01:07:59;;;;;;;;;26.50;23.25;;;;;;;;5042971;28;45327;-66
2022/09/23 01:10:29;;;;;;;;;24.50;21.50;;;;;;;;5041769;28;45467;-67
2022/09/23 01:13:02;;;;;;;;;22.75;19.50;;;;;;;;5041501;28;45678;-69
2022/09/23 01:15:34;;;;;;;;;21.25;19.50;;;;;;;;5041793;28;45386;-67
2022/09/23 01:17:59;;;;;;;;;21.25;20.00;;;;;;;;5016825;28;45479;-66
2022/09/23 01:20:27;;;;;;;;;20.75;17.75;;;;;;;;5041502;28;46102;-69
2022/09/23 01:23:02;;;;;;;;;21.75;17.00;;;;;;;;5042419;28;45295;-69
2022/09/23 01:25:36;;;;;;;;;24.00;21.50;;;;;;;;5041806;28;45465;-69
2022/09/23 01:28:13;;;;;;;;;21.75;19.50;;;;;;;;5035166;28;45601;-68
2022/09/23 01:30:42;;;;;;;;;27.00;24.25;;;;;;;;5041073;28;45315;-68
2022/09/23 01:33:20;;;;;;;;;21.25;21.00;;;;;;;;5042059;28;45455;-68
2022/09/23 01:35:48;;;;;;;;;22.75;22.00;;;;;;;;5041410;28;45410;-68
2022/09/23 01:38:14;;;;;;;;;23.25;22.25;;;;;;;;5024594;28;45349;-68
2022/09/23 01:40:49;;;;;;;;;23.25;20.00;;;;;;;;5041054;28;46184;-68
2022/09/23 01:43:18;;;;;;;;;27.75;24.00;;;;;;;;5022685;28;45430;-68
2022/09/23 01:45:45;;;;;;;;;21.25;21.00;;;;;;;;5017489;28;45549;-68
2022/09/23 01:48:17;;;;;;;;;23.75;22.25;;;;;;;;5039692;28;45401;-68
2022/09/23 01:50:57;;;;;;;;;23.00;22.75;;;;;;;;5041072;28;45373;-68
2022/09/23 01:53:34;;;;;;;;;23.75;17.25;;;;;;;;5042007;28;45383;-68
2022/09/23 01:56:03;;;;;;;;;25.25;20.50;;;;;;;;5019629;28;45413;-68
2022/09/23 01:58:38;;;;;;;;;21.50;19.50;;;;;;;;5042300;28;45394;-68
2022/09/23 02:01:05;;;;;;;;;24.25;20.75;;;;;;;;5039631;28;45442;-68
2022/09/23 02:03:39;;;;;;;;;27.75;22.50;;;;;;;;5041398;28;45426;-68
2022/09/23 02:06:10;;;;;;;;;25.50;20.75;;;;;;;;5041186;28;45480;-68
2022/09/23 02:08:50;;;;;;;;;19.25;19.00;;;;;;;;5042124;28;45347;-68
2022/09/23 02:11:17;;;;;;;;;21.25;19.75;;;;;;;;5040758;28;46322;-67
2022/09/23 02:13:46;;;;;;;;;23.75;19.00;;;;;;;;5041373;28;45346;-68
2022/09/23 02:16:40;;;;;;;;;22.25;18.75;;;;;;;;5040928;28;45295;-68
2022/09/23 02:19:15;;;;;;;;;22.50;19.25;;;;;;;;5042406;28;45892;-68
2022/09/23 02:21:45;;;;;;;;;19.25;18.25;;;;;;;;5040290;28;46441;-68
2022/09/23 02:24:13;;;;;;;;;21.00;21.00;;;;;;;;5041331;28;45402;-68
2022/09/23 02:26:49;;;;;;;;;22.75;19.75;;;;;;;;5040700;28;45465;-68
2022/09/23 02:29:23;;;;;;;;;19.75;19.75;;;;;;;;5040757;28;45335;-69
2022/09/23 02:31:48;;;;;;;;;21.00;20.50;;;;;;;;5040031;28;45537;-68
2022/09/23 02:34:17;;;;;;;;;22.50;20.00;;;;;;;;5041342;28;45239;-68
2022/09/23 02:36:43;;;;;;;;;24.00;20.25;;;;;;;;5040767;28;45640;-68
2022/09/23 02:39:11;;;;;;;;;20.00;18.00;;;;;;;;5041400;28;45343;-68
2022/09/23 02:41:39;;;;;;;;;25.50;21.00;;;;;;;;5040152;28;45457;-68
2022/09/23 02:44:06;;;;;;;;;20.50;20.00;;;;;;;;5039446;28;45344;-68
2022/09/23 02:46:32;;;;;;;;;22.00;20.25;;;;;;;;5040487;28;45281;-68
2022/09/23 02:49:16;;;;;;;;;26.00;23.25;;;;;;;;5041323;28;45611;-68
2022/09/23 02:51:42;;;;;;;;;19.00;19.00;;;;;;;;5029726;28;47539;-68
2022/09/23 02:54:09;;;;;;;;;23.00;20.25;;;;;;;;5055652;28;45278;-68
2022/09/23 02:56:35;;;;;;;;;20.00;18.00;;;;;;;;5040582;28;45295;-68
2022/09/23 02:59:00;;;;;;;;;21.50;19.00;;;;;;;;5037225;28;45749;-68
2022/09/23 03:01:26;;;;;;;;;25.25;19.75;;;;;;;;5040089;28;45632;-68
2022/09/23 03:04:03;;;;;;;;;19.25;18.25;;;;;;;;5040830;28;45417;-68
2022/09/23 03:06:29;;;;;;;;;21.50;20.00;;;;;;;;5040292;28;45542;-68
2022/09/23 03:09:03;;;;;;;;;27.00;22.50;;;;;;;;5015839;28;45679;-68
2022/09/23 03:11:31;;;;;;;;;20.50;17.50;;;;;;;;5041032;28;46461;-68
2022/09/23 03:13:57;;;;;;;;;17.00;15.00;;;;;;;;5053012;28;45468;-68
2022/09/23 03:16:31;;;;;;;;;28.00;26.50;;;;;;;;5024258;28;45535;-67
2022/09/23 03:19:02;;;;;;;;;29.50;23.25;;;;;;;;5043783;28;45557;-68
2022/09/23 03:21:30;;;;;;;;;24.50;21.25;;;;;;;;5042915;28;45473;-68
2022/09/23 03:23:58;;;;;;;;;25.75;21.50;;;;;;;;5043536;28;45301;-68
2022/09/23 03:26:27;;;;;;;;;27.50;22.50;;;;;;;;5043483;28;45341;-68
2022/09/23 03:28:53;;;;;;;;;23.75;21.75;;;;;;;;5044035;28;45636;-70
2022/09/23 03:31:18;;;;;;;;;21.00;21.00;;;;;;;;5042462;28;46548;-68
2022/09/23 03:33:49;;;;;;;;;24.75;22.75;;;;;;;;5019120;28;45473;-68
2022/09/23 03:39:04;;;;;;;;;22.00;21.00;;;;;;;;5044961;28;45596;-68
2022/09/23 03:41:32;;;;;;;;;20.50;17.25;;;;;;;;5043690;28;45535;-68
2022/09/23 03:43:58;;;;;;;;;24.00;19.75;;;;;;;;5037600;28;45515;-69
2022/09/23 03:46:26;;;;;;;;;28.50;22.50;;;;;;;;5043989;28;45472;-68
2022/09/23 03:48:51;;;;;;;;;23.00;21.50;;;;;;;;5044795;28;45550;-67
2022/09/23 03:51:19;;;;;;;;;23.25;16.50;;;;;;;;5043503;28;45552;-68
2022/09/23 03:53:44;;;;;;;;;24.50;20.00;;;;;;;;5044362;28;45353;-68
2022/09/23 03:56:10;;;;;;;;;23.00;20.75;;;;;;;;5043804;28;45618;-67
2022/09/23 03:58:35;;;;;;;;;25.75;22.50;;;;;;;;5044813;28;45422;-68
2022/09/23 04:01:01;;;;;;;;;24.25;21.00;;;;;;;;5024842;28;46668;-68
2022/09/23 04:03:26;;;;;;;;;21.50;20.00;;;;;;;;5043284;28;45187;-68
2022/09/23 04:05:52;;;;;;;;;18.00;17.00;;;;;;;;5043416;28;45390;-68
2022/09/23 04:08:17;;;;;;;;;18.25;17.25;;;;;;;;5044442;28;45350;-68
2022/09/23 04:10:42;;;;;;;;;21.75;19.75;;;;;;;;5043100;28;45532;-68
2022/09/23 04:13:08;;;;;;;;;19.50;19.25;;;;;;;;5044113;28;45366;-68
2022/09/23 04:15:33;;;;;;;;;22.50;21.25;;;;;;;;5043767;28;45196;-68
2022/09/23 04:17:58;;;;;;;;;18.25;17.00;;;;;;;;5044120;28;45708;-68
2022/09/23 04:20:28;;;;;;;;;25.75;15.00;;;;;;;;5040858;28;47769;-68
2022/09/23 04:22:54;;;;;;;;;21.00;18.25;;;;;;;;5034131;28;45328;-68
2022/09/23 04:25:19;;;;;;;;;18.25;18.25;;;;;;;;5043041;28;45616;-68
2022/09/23 04:27:44;;;;;;;;;18.75;18.75;;;;;;;;5044219;28;45358;-68
2022/09/23 04:30:10;;;;;;;;;27.25;25.50;;;;;;;;5043113;28;46712;-68
2022/09/23 04:32:35;;;;;;;;;24.00;23.00;;;;;;;;5041984;28;45242;-67
2022/09/23 04:35:01;;;;;;;;;23.25;22.00;;;;;;;;5042952;28;45525;-68
2022/09/23 04:37:26;;;;;;;;;22.00;18.00;;;;;;;;5043867;28;45190;-68
2022/09/23 04:39:51;;;;;;;;;25.25;21.00;;;;;;;;5017086;28;48417;-68
2022/09/23 04:42:16;;;;;;;;;28.50;24.00;;;;;;;;5042578;28;45330;-67
2022/09/23 04:44:41;;;;;;;;;19.50;18.25;;;;;;;;5042983;28;46415;-67
2022/09/23 04:47:07;;;;;;;;;20.00;17.75;;;;;;;;5043352;28;45318;-68
2022/09/23 04:49:32;;;;;;;;;20.75;20.00;;;;;;;;5042781;28;45611;-68
2022/09/23 04:51:57;;;;;;;;;22.00;19.50;;;;;;;;5043096;28;45351;-68
2022/09/23 04:54:23;;;;;;;;;21.75;21.00;;;;;;;;5043105;28;45525;-67
2022/09/23 04:56:48;;;;;;;;;22.00;22.00;;;;;;;;5042616;28;45409;-68
2022/09/23 04:59:13;;;;;;;;;23.75;21.50;;;;;;;;5043157;28;46578;-68
2022/09/23 05:01:38;;;;;;;;;27.75;24.00;;;;;;;;5041939;28;46033;-68
2022/09/23 05:04:05;;;;;;;;;23.50;23.50;;;;;;;;5043518;28;45255;-68
2022/09/23 05:06:34;;;;;;;;;24.75;20.25;;;;;;;;5042728;28;45510;-68
2022/09/23 05:08:59;;;;;;;;;23.00;20.75;;;;;;;;5042449;28;46200;-68
2022/09/23 05:11:25;;;;;;;;;24.50;21.50;;;;;;;;5041795;28;45349;-68
2022/09/23 05:13:52;;;;;;;;;27.25;21.50;;;;;;;;5042343;28;45247;-67
2022/09/23 05:16:18;;;;;;;;;25.25;22.00;;;;;;;;5041845;28;45153;-68
2022/09/23 05:18:44;;;;;;;;;25.75;23.75;;;;;;;;5041691;28;45377;-68
2022/09/23 05:21:10;;;;;;;;;26.00;23.25;;;;;;;;5041452;28;45399;-68
2022/09/23 05:23:35;;;;;;;;;27.00;21.50;;;;;;;;5024100;28;45522;-68
2022/09/23 05:26:04;;;;;;;;;19.75;16.75;;;;;;;;5040661;28;45722;-68
2022/09/23 05:28:31;;;;;;;;;27.75;23.75;;;;;;;;5050870;28;45814;-70
2022/09/23 05:31:05;;;;;;;;;21.50;19.75;;;;;;;;5034002;28;45401;-68
2022/09/23 05:33:31;;;;;;;;;18.75;18.75;;;;;;;;5015731;28;45591;-68
2022/09/23 05:35:56;;;;;;;;;16.00;15.50;;;;;;;;5040868;28;45478;-68
2022/09/23 05:38:22;;;;;;;;;22.25;20.50;;;;;;;;5040834;28;45911;-68
2022/09/23 05:40:53;;;;;;;;;22.50;20.50;;;;;;;;5040480;28;45590;-69
2022/09/23 05:43:18;;;;;;;;;25.00;23.25;;;;;;;;5033855;28;45463;-68
2022/09/23 05:45:44;;;;;;;;;25.25;22.25;;;;;;;;5041425;28;45407;-69
2022/09/23 05:48:09;;;;;;;;;32.25;22.25;;;;;;;;5055668;28;46978;-68
2022/09/23 05:50:34;;;;;;;;;30.75;27.00;;;;;;;;5040488;28;45407;-68
2022/09/23 05:52:59;;;;;;;;;25.00;23.25;;;;;;;;5028087;28;45441;-68
2022/09/23 05:55:25;;;;;;;;;23.75;21.75;;;;;;;;5040915;28;45281;-68
2022/09/23 05:57:51;;;;;;;;;28.75;25.50;;;;;;;;5041312;28;46251;-68
2022/09/23 06:00:16;;;;;;;;;26.50;24.00;;;;;;;;5040598;28;45323;-70
2022/09/23 06:02:41;;;;;;;;;28.00;21.00;;;;;;;;5024839;28;45315;-69
2022/09/23 06:05:06;;;;;;;;;23.75;21.50;;;;;;;;5041062;28;45525;-69
2022/09/23 06:07:31;;;;;;;;;26.50;23.75;;;;;;;;5041017;28;45384;-69
2022/09/23 06:09:57;;;;;;;;;25.25;22.25;;;;;;;;5040534;28;45326;-68
2022/09/23 06:12:23;;;;;;;;;26.50;23.00;;;;;;;;5041480;28;45499;-69
2022/09/23 06:14:49;;;;;;;;;25.50;22.25;;;;;;;;5040001;28;45376;-70
2022/09/23 06:17:15;;;;;;;;;21.00;21.00;;;;;;;;5054096;28;47808;-69
2022/09/23 06:19:40;;;;;;;;;26.75;22.75;;;;;;;;5040422;28;45354;-69
2022/09/23 06:22:05;;;;;;;;;27.00;25.00;;;;;;;;5040830;28;45252;-69
2022/09/23 06:24:30;;;;;;;;;24.50;21.75;;;;;;;;5041178;28;45332;-69
2022/09/23 06:26:55;;;;;;;;;24.00;19.75;;;;;;;;5040070;28;45417;-69
2022/09/23 06:29:21;;;;;;;;;22.00;20.50;;;;;;;;5041164;28;45457;-69
2022/09/23 06:31:48;;;;;;;;;28.50;27.00;;;;;;;;5040307;28;45751;-69
2022/09/23 06:34:13;;;;;;;;;24.25;22.75;;;;;;;;5041574;28;45469;-69
2022/09/23 06:36:39;;;;;;;;;30.50;26.00;;;;;;;;5040464;28;45607;-68
2022/09/23 06:39:04;;;;;;;;;31.00;25.75;;;;;;;;5041088;28;45364;-69
2022/09/23 06:41:29;;;;;;;;;26.25;22.25;;;;;;;;5040852;28;45358;-69
2022/09/23 06:43:55;;;;;;;;;27.00;24.50;;;;;;;;5054252;28;45470;-68
2022/09/23 06:46:20;;;;;;;;;21.75;19.00;;;;;;;;5040948;28;45330;-68
2022/09/23 06:48:45;;;;;;;;;22.00;19.75;;;;;;;;5043821;28;45277;-69
2022/09/23 06:51:17;;;;;;;;;22.75;22.25;;;;;;;;5043755;28;45493;-68
2022/09/23 06:53:43;;;;;;;;;23.67;22.00;;;;;;;;5039859;28;45262;-69
2022/09/23 06:56:09;;;;;;;;;26.25;22.75;;;;;;;;5043212;28;46247;-69
2022/09/23 06:58:35;;;;;;;;;29.00;25.25;;;;;;;;5043700;28;45537;-69
2022/09/23 07:01:01;;;;;;;;;24.25;23.50;;;;;;;;5042732;28;45535;-70
2022/09/23 07:03:26;;;;;;;;;30.00;29.00;;;;;;;;5044420;28;45388;-68
2022/09/23 07:05:55;;;;;;;;;34.50;31.00;;;;;;;;5043825;28;46350;-69
2022/09/23 07:08:20;;;;;;;;;28.00;26.25;;;;;;;;5044078;28;45160;-68
2022/09/23 07:10:50;;;;;;;;;34.25;25.50;;;;;;;;5025137;28;45262;-69
2022/09/23 07:13:15;;;;;;;;;29.25;28.75;;;;;;;;5044203;28;45389;-70
2022/09/23 07:15:40;;;;;;;;;32.50;28.00;;;;;;;;5041758;28;45601;-68
2022/09/23 07:18:05;;;;;;;;;35.00;29.50;;;;;;;;5043732;28;45367;-68
2022/09/23 07:20:30;;;;;;;;;33.50;30.50;;;;;;;;5043054;28;45433;-68
2022/09/23 07:22:56;;;;;;;;;32.00;30.25;;;;;;;;5043913;28;45331;-68
2022/09/23 07:25:21;;;;;;;;;34.50;28.75;;;;;;;;5042723;28;45587;-68
2022/09/23 07:27:47;;;;;;;;;33.75;29.50;;;;;;;;5043113;28;45356;-70
2022/09/23 07:30:13;;;;;;;;;31.25;29.00;;;;;;;;5042842;28;45236;-69
2022/09/23 07:32:39;;;;;;;;;29.00;27.00;;;;;;;;5043289;28;45458;-68
2022/09/23 07:35:04;;;;;;;;;33.50;31.25;;;;;;;;5042577;28;46566;-67
2022/09/23 07:37:29;;;;;;;;;32.75;31.50;;;;;;;;5043541;28;45346;-70
2022/09/23 07:39:55;;;;;;;;;37.75;30.75;;;;;;;;5018416;28;45491;-68
2022/09/23 07:42:20;;;;;;;;;34.50;29.50;;;;;;;;5043149;28;45419;-70
2022/09/23 07:44:46;;;;;;;;;33.75;29.25;;;;;;;;5043215;28;46364;-69
2022/09/23 07:47:11;;;;;;;;;34.25;31.25;;;;;;;;5043547;28;45401;-68
2022/09/23 07:49:37;;;;;;;;;33.00;30.50;;;;;;;;5019427;28;45275;-69
2022/09/23 07:52:03;;;;;;;;;41.50;33.00;;;;;;;;5043914;28;45687;-68
2022/09/23 07:54:28;;;;;;;;;30.25;29.00;;;;;;;;5025401;28;47255;-68
2022/09/23 07:56:54;;;;;;;;;28.75;26.00;;;;;;;;5042507;28;45422;-68
2022/09/23 07:59:19;;;;;;;;;40.25;31.50;;;;;;;;5042187;28;45471;-67
2022/09/23 08:01:46;;;;;;;;;35.50;30.00;;;;;;;;5022252;28;45579;-68
2022/09/23 08:04:20;;;;;;;;;34.75;30.75;;;;;;;;5058210;28;47011;-68
2022/09/23 08:06:47;;;;;;;;;35.50;27.50;;;;;;;;5040676;28;45716;-68
2022/09/23 08:09:13;;;;;;;;;36.25;30.25;;;;;;;;5043724;28;45249;-68
2022/09/23 08:11:40;;;;;;;;;38.00;31.25;;;;;;;;5041220;28;45544;-68
2022/09/23 08:14:06;;;;;;;;;33.75;29.00;;;;;;;;5038007;28;45508;-68
2022/09/23 08:16:31;;;;;;;;;43.50;33.50;;;;;;;;5040751;28;45274;-68
2022/09/23 08:18:57;;;;;;;;;35.25;30.00;;;;;;;;5043519;28;45310;-68
2022/09/23 08:21:22;;;;;;;;;38.50;31.50;;;;;;;;5043393;28;45247;-68
2022/09/23 08:23:47;;;;;;;;;37.75;30.50;;;;;;;;5042522;28;45663;-69
2022/09/23 08:26:13;;;;;;;;;32.50;30.00;;;;;;;;5042410;28;45332;-68
2022/09/23 08:28:38;;;;;;;;;37.00;32.25;;;;;;;;5058306;28;45373;-68
2022/09/23 08:31:04;;;;;;;;;48.75;38.25;;;;;;;;5042976;28;45344;-68
2022/09/23 08:33:29;;;;;;;;;34.25;32.25;;;;;;;;5042490;28;46113;-68
2022/09/23 08:35:58;;;;;;;;;30.25;28.75;;;;;;;;5040513;28;45540;-70
2022/09/23 08:38:23;;;;;;;;;31.50;30.50;;;;;;;;5043704;28;45490;-69
2022/09/23 08:40:49;;;;;;;;;37.50;31.75;;;;;;;;5040868;28;45449;-69
2022/09/23 08:43:28;;;;;;;;;35.00;30.25;;;;;;;;5041585;28;45546;-69
2022/09/23 08:45:55;;;;;;;;;34.25;32.00;;;;;;;;5042216;28;45319;-69
2022/09/23 08:48:28;;;;;;;;;31.75;28.75;;;;;;;;5042870;28;45368;-68
2022/09/23 08:50:58;;;;;;;;;39.75;32.00;;;;;;;;5042762;28;45465;-67
2022/09/23 08:53:25;;;;;;;;;38.50;32.00;;;;;;;;5042511;28;46763;-68
2022/09/23 08:55:52;;;;;;;;;40.50;32.50;;;;;;;;5042132;28;45374;-68
2022/09/23 08:58:33;;;;;;;;;39.50;29.50;;;;;;;;5043131;28;45374;-68
2022/09/23 09:00:59;;;;;;;;;34.25;30.50;;;;;;;;5042581;28;45238;-68
2022/09/23 09:03:29;;;;;;;;;35.75;32.00;;;;;;;;5042417;28;45344;-68
2022/09/23 09:05:55;;;;;;;;;37.00;32.00;;;;;;;;5042312;28;45471;-68
2022/09/23 09:08:23;;;;;;;;;40.75;33.00;;;;;;;;5039232;28;45445;-68
2022/09/23 09:10:51;;;;;;;;;44.25;35.00;;;;;;;;5042585;28;45534;-70
2022/09/23 09:13:42;;;;;;;;;41.50;33.00;;;;;;;;5041196;28;45658;-70
2022/09/23 09:16:41;;;;;;;;;34.50;30.00;;;;;;;;5033322;28;45362;-69
2022/09/23 09:19:11;;;;;;;;;31.50;30.00;;;;;;;;4968105;28;45660;-68
2022/09/23 09:21:39;;;;;;;;;39.25;32.25;;;;;;;;5042809;28;45413;-69
2022/09/23 09:24:13;;;;;;;;;36.75;34.25;;;;;;;;5042550;28;45270;-68
2022/09/23 09:26:38;;;;;;;;;38.75;35.25;;;;;;;;5041764;28;45406;-68
2022/09/23 09:29:04;;;;;;;;;43.00;35.00;;;;;;;;5042323;28;45268;-70
2022/09/23 09:31:46;;;;;;;;;39.75;32.75;;;;;;;;5041856;28;45565;-69
2022/09/23 09:34:26;;;;;;;;;32.00;29.00;;;;;;;;5042054;28;45710;-69
2022/09/23 09:36:51;;;;;;;;;39.00;33.00;;;;;;;;5041615;28;45481;-70
2022/09/23 09:39:17;;;;;;;;;34.25;33.00;;;;;;;;5041432;28;45378;-69
2022/09/23 09:41:46;;;;;;;;;36.00;31.25;;;;;;;;5021578;28;45518;-69
2022/09/23 09:44:21;;;;;;;;;33.00;29.75;;;;;;;;5056038;28;47004;-68
2022/09/23 09:46:54;;;;;;;;;38.50;32.25;;;;;;;;5021824;28;46008;-68
2022/09/23 09:49:21;;;;;;;;;34.75;29.00;;;;;;;;5042675;28;45307;-68
2022/09/23 09:51:47;;;;;;;;;35.25;30.75;;;;;;;;5042116;28;45264;-68
2022/09/23 09:54:22;;;;;;;;;32.00;26.50;;;;;;;;5042035;28;45315;-69
2022/09/23 09:56:48;;;;;;;;;30.00;23.67;;;;;;;;5041510;28;45449;-69
2022/09/23 09:59:22;;;;;;;;;27.25;25.75;;;;;;;;5057661;28;45345;-68
2022/09/23 10:01:47;;;;;;;;;27.75;25.75;;;;;;;;5041931;28;45406;-68
2022/09/23 10:04:39;;;;;;;;;41.25;30.50;;;;;;;;5042144;28;45598;-70
2022/09/23 10:07:11;;;;;;;;;27.50;27.50;;;;;;;;5037953;28;45505;-68
2022/09/23 10:09:37;;;;;;;;;25.75;23.00;;;;;;;;5041645;28;45551;-69
2022/09/23 10:12:13;;;;;;;;;26.75;25.00;;;;;;;;5041920;28;45463;-69
2022/09/23 10:14:39;;;;;;;;;33.25;29.75;;;;;;;;5049261;28;47859;-69
2022/09/23 10:17:05;;;;;;;;;32.25;29.25;;;;;;;;5041629;28;45284;-68
2022/09/23 10:19:31;;;;;;;;;22.25;21.50;;;;;;;;5023942;28;45402;-70
2022/09/23 10:22:01;;;;;;;;;26.75;23.00;;;;;;;;5043568;28;45634;-69
2022/09/23 10:24:31;;;;;;;;;29.00;26.00;;;;;;;;5025110;28;46925;-69
2022/09/23 10:27:00;;;;;;;;;26.75;21.50;;;;;;;;5044759;28;45216;-70
2022/09/23 10:29:36;;;;;;;;;27.00;24.75;;;;;;;;5045837;28;45432;-70
2022/09/23 10:32:16;;;;;;;;;23.50;22.75;;;;;;;;5022699;28;45359;-69
2022/09/23 10:34:42;;;;;;;;;24.00;24.00;;;;;;;;5044911;28;45250;-69
2022/09/23 10:37:28;;;;;;;;;27.50;25.00;;;;;;;;5045215;28;45488;-69
2022/09/23 10:48:09;;;;;;;;;26.33;21.67;;;;;;;;5044920;28;45279;-69
2022/09/23 10:50:38;;;;;;;;;22.67;19.67;;;;;;;;5015953;28;45490;-69
2022/09/23 10:53:11;;;;;;;;;25.00;21.33;;;;;;;;5041216;28;45314;-68
2022/09/23 10:55:59;;;;;;;;;21.67;19.67;;;;;;;;5044497;28;45392;-70
2022/09/23 10:58:27;;;;;;;;;21.00;20.00;;;;;;;;5027602;28;45429;-70
2022/09/23 11:00:59;;;;;;;;;22.00;20.00;;;;;;;;5018463;28;45461;-68
2022/09/23 11:03:50;;;;;;;;;25.00;19.00;;;;;;;;5045207;28;45556;-68
2022/09/23 11:06:19;;;;;;;;;21.00;20.00;;;;;;;;5044225;28;45731;-68
2022/09/23 11:08:50;;;;;;;;;19.00;15.67;;;;;;;;5045466;28;45409;-68
2022/09/23 11:11:24;;;;;;;;;16.67;13.67;;;;;;;;5025315;28;45517;-68
2022/09/23 11:14:12;;;;;;;;;18.33;13.33;;;;;;;;5023613;28;45686;-68
2022/09/23 11:16:37;;;;;;;;;17.67;17.33;;;;;;;;5043711;28;46463;-68
2022/09/23 11:19:09;;;;;;;;;16.00;16.00;;;;;;;;5044675;28;45330;-65
2022/09/23 11:21:34;;;;;;;;;14.33;12.00;;;;;;;;5023176;28;45414;-68
2022/09/23 11:24:28;;;;;;;;;14.33;12.33;;;;;;;;5044790;28;45640;-67
2022/09/23 11:27:06;;;;;;;;;15.67;14.33;;;;;;;;5042158;28;47746;-69
2022/09/23 11:29:49;;;;;;;;;13.33;12.00;;;;;;;;5044837;28;45263;-68
2022/09/23 11:32:18;;;;;;;;;12.00;12.00;;;;;;;;5017638;28;45444;-70
2022/09/23 11:34:53;;;;;;;;;15.00;14.33;;;;;;;;5036233;28;45459;-70
2022/09/23 11:37:24;;;;;;;;;15.33;14.00;;;;;;;;5043804;28;45389;-68
2022/09/23 11:39:58;;;;;;;;;16.33;11.00;;;;;;;;5043880;28;45462;-68
2022/09/23 11:42:27;;;;;;;;;21.67;15.00;;;;;;;;5043060;28;45291;-68
2022/09/23 11:45:01;;;;;;;;;28.25;28.25;;;;;;;;5043668;28;45371;-69
2022/09/23 11:47:35;;;;;;;;;14.33;14.00;;;;;;;;5020735;28;47121;-69
2022/09/23 11:50:18;;;;;;;;;13.67;12.00;;;;;;;;5043103;28;45371;-68
2022/09/23 11:52:47;;;;;;;;;17.00;14.33;;;;;;;;5042327;28;45256;-68
2022/09/23 11:55:23;;;;;;;;;15.33;14.33;;;;;;;;5044358;28;45415;-68
2022/09/23 11:57:53;;;;;;;;;18.00;12.33;;;;;;;;5025981;28;47205;-68
2022/09/23 12:00:20;;;;;;;;;13.00;13.00;;;;;;;;5022290;28;45378;-68
2022/09/23 12:02:51;;;;;;;;;16.67;12.67;;;;;;;;5043993;28;45371;-68
2022/09/23 12:05:21;;;;;;;;;14.33;12.33;;;;;;;;5044167;28;45646;-69
2022/09/23 12:07:46;;;;;;;;;21.33;15.00;;;;;;;;5044175;28;45449;-69
2022/09/23 12:10:12;;;;;;;;;15.00;13.00;;;;;;;;5043489;28;45372;-69
2022/09/23 12:12:41;;;;;;;;;11.33;11.33;;;;;;;;5027259;28;45990;-69
2022/09/23 12:15:21;;;;;;;;;14.67;12.00;;;;;;;;5044166;28;45260;-69
2022/09/23 12:18:02;;;;;;;;;12.00;12.00;;;;;;;;5042474;28;45402;-68
2022/09/23 12:20:41;;;;;;;;;12.00;10.00;;;;;;;;5043305;28;45436;-68
2022/09/23 12:23:12;;;;;;;;;14.33;11.67;;;;;;;;5036526;28;45495;-68
2022/09/23 12:25:45;;;;;;;;;13.33;13.33;;;;;;;;5043165;28;45469;-69
2022/09/23 12:28:17;;;;;;;;;14.67;14.33;;;;;;;;5035607;28;46614;-69
2022/09/23 12:30:42;;;;;;;;;10.00;10.00;;;;;;;;5020086;28;45429;-69
2022/09/23 12:33:21;;;;;;;;;12.67;12.00;;;;;;;;5043128;28;45385;-69
2022/09/23 12:35:46;;;;;;;;;15.00;12.00;;;;;;;;5057019;28;45262;-69
2022/09/23 12:38:13;;;;;;;;;13.00;11.33;;;;;;;;5025478;28;48006;-69
2022/09/23 12:40:43;;;;;;;;;16.00;12.00;;;;;;;;5042560;28;45474;-69
2022/09/23 12:43:15;;;;;;;;;15.67;13.33;;;;;;;;5016077;28;45398;-69
2022/09/23 12:45:41;;;;;;;;;9.33;7.67;;;;;;;;5042961;28;45490;-69
2022/09/23 12:48:15;;;;;;;;;17.25;16.00;;;;;;;;5043039;28;45551;-68
2022/09/23 12:50:47;;;;;;;;;17.00;16.67;;;;;;;;5042746;28;45325;-68
2022/09/23 12:53:31;;;;;;;;;18.50;18.50;;;;;;;;5020554;28;45378;-68
2022/09/23 12:55:57;;;;;;;;;22.25;21.00;;;;;;;;5043152;28;47328;-69
2022/09/23 12:58:55;;;;;;;;;11.33;10.00;;;;;;;;5043448;28;45272;-68
2022/09/23 13:01:22;;;;;;;;;11.33;11.33;;;;;;;;5042408;28;45366;-68
2022/09/23 13:06:41;;;;;;;;;14.00;14.00;;;;;;;;5043254;28;45528;-68
2022/09/23 13:09:11;;;;;;;;;15.33;13.00;;;;;;;;5042984;28;46140;-69
2022/09/23 13:11:39;;;;;;;;;15.00;13.67;;;;;;;;5021092;28;45780;-68
2022/09/23 13:14:05;;;;;;;;;14.33;14.33;;;;;;;;5043126;28;45338;-68
2022/09/23 13:16:36;;;;;;;;;18.67;15.00;;;;;;;;5042773;28;45481;-68
2022/09/23 13:19:03;;;;;;;;;14.33;13.00;;;;;;;;5023893;28;47021;-68
2022/09/23 13:21:44;;;;;;;;;19.33;18.00;;;;;;;;5042121;28;45516;-68
2022/09/23 13:24:16;;;;;;;;;22.75;19.75;;;;;;;;5043159;28;45370;-67
2022/09/23 13:26:45;;;;;;;;;23.75;21.25;;;;;;;;5042788;28;45482;-67
2022/09/23 13:29:20;;;;;;;;;19.67;19.33;;;;;;;;5041402;28;45499;-67
2022/09/23 13:31:45;;;;;;;;;18.50;18.50;;;;;;;;5041802;28;45401;-68
2022/09/23 13:34:12;;;;;;;;;23.50;20.50;;;;;;;;5042884;28;45430;-70
2022/09/23 13:36:47;;;;;;;;;26.75;21.25;;;;;;;;5042606;28;45450;-68
2022/09/23 13:39:21;;;;;;;;;24.75;22.25;;;;;;;;5041112;28;45561;-69
2022/09/23 13:41:46;;;;;;;;;21.33;18.00;;;;;;;;5041924;28;45477;-68
2022/09/23 13:44:19;;;;;;;;;18.25;18.25;;;;;;;;5042657;28;45218;-68
2022/09/23 13:46:46;;;;;;;;;19.33;19.33;;;;;;;;5042522;28;45690;-68
2022/09/23 13:49:19;;;;;;;;;20.50;18.00;;;;;;;;5039670;28;45671;-70
2022/09/23 13:51:45;;;;;;;;;23.00;21.50;;;;;;;;5041879;28;45461;-71
2022/09/23 13:54:24;;;;;;;;;19.67;19.00;;;;;;;;5042893;28;45421;-70
2022/09/23 13:56:49;;;;;;;;;18.67;16.67;;;;;;;;5042873;28;45689;-69
2022/09/23 13:59:20;;;;;;;;;24.00;22.75;;;;;;;;5042605;28;45385;-68
2022/09/23 14:01:45;;;;;;;;;22.00;20.33;;;;;;;;5041463;28;45435;-68
2022/09/23 14:04:24;;;;;;;;;18.25;18.25;;;;;;;;5042298;28;45370;-68
2022/09/23 14:06:49;;;;;;;;;17.33;17.33;;;;;;;;5040599;28;45490;-68
2022/09/23 14:09:15;;;;;;;;;18.00;14.67;;;;;;;;5042356;28;46604;-68
2022/09/23 14:11:42;;;;;;;;;13.00;11.25;;;;;;;;5041606;28;45251;-68
2022/09/23 14:14:12;;;;;;;;;15.50;15.50;;;;;;;;5017803;28;45644;-69
2022/09/23 14:16:39;;;;;;;;;21.50;21.50;;;;;;;;5041817;28;45554;-69
2022/09/23 14:19:06;;;;;;;;;24.00;22.50;;;;;;;;5056969;28;47327;-69
2022/09/23 14:21:33;;;;;;;;;21.00;19.75;;;;;;;;5041019;28;45361;-69
2022/09/23 14:24:16;;;;;;;;;16.00;15.33;;;;;;;;5041740;28;45256;-69
2022/09/23 14:26:43;;;;;;;;;14.33;14.33;;;;;;;;5041780;28;45429;-69
2022/09/23 14:29:19;;;;;;;;;13.67;13.67;;;;;;;;5022048;28;47021;-69
2022/09/23 14:31:55;;;;;;;;;14.00;14.00;;;;;;;;5040487;28;45418;-69
2022/09/23 14:34:39;;;;;;;;;16.00;14.00;;;;;;;;5029880;28;45315;-68
2022/09/23 14:40:05;;;;;;;;;22.00;19.00;;;;;;;;5040721;28;45494;-69
2022/09/23 14:42:35;;;;;;;;;16.00;15.67;;;;;;;;5040974;28;45501;-68
2022/09/23 14:45:01;;;;;;;;;18.67;16.67;;;;;;;;5040389;28;45413;-69